KMAN

Nampa Municipal Airport

Nampa, Idaho, USA
METAR KMAN 151555Z AUTO 14005KT 10SM SCT060 SCT080 M00/M00 A3016 RMK A01
Observed Flight Rules
Dec-15 @ 15:55 UTC (9 minutes ago) Visual Flight Rules
Wind Visibility Clouds
140° at 5 knots 10 miles
  • Scattered at 6,000' AGL
  • Scattered at 8,000' AGL
Temperatures Readings
Current 0°C / 32°F
Dewpoint 0°C / 32°F
Humidity 100%
Altimeter 30.16" Hg
Pressure 1021 hPa
Elevation 774
METAR KMAN 151555Z AUTO 14005KT 10SM SCT060 SCT080 M00/M00 A3016 RMK A01
Observed Flight Rules
Dec-15 @ 15:55 UTC
(9 minutes ago)
VFR
Wind Visibility
140° at 5 knots 10 miles
Clouds
  • Scattered at 6,000' AGL
  • Scattered at 8,000' AGL
Temperature Dewpoint
0°C / 32°F 0°C / 32°F
Humidity Altimeter Pressure
100% 30.16" Hg 1021 hPa